Time;durP1;ratioP1;P1;durP2;ratioP2;P2;SDS_P1;SDS_P2;PMS_P1;PMS_P2;Temp;Humidity;BMP_temperature;BMP_pressure;BME280_temperature;BME280_humidity;BME280_pressure;Samples;Min_cycle;Max_cycle;Signal;HPM_P1;HPM_P2
2021/10/05 00:02:15;;;;;;;12.15;2.85;;;14.60;91.90;;;;;;5078049;28;20028;-79
2021/10/05 00:04:41;;;;;;;12.77;3.08;;;14.60;92.40;;;;;;5085232;28;20020;-78
2021/10/05 00:07:07;;;;;;;17.67;2.63;;;14.70;92.40;;;;;;5084290;28;20030;-78
2021/10/05 00:09:33;;;;;;;14.85;2.50;;;14.80;93.00;;;;;;5078156;28;20036;-78
2021/10/05 00:11:59;;;;;;;13.93;2.72;;;14.80;93.10;;;;;;5076699;28;20028;-78
2021/10/05 00:14:24;;;;;;;11.70;2.30;;;14.80;93.00;;;;;;5078112;28;20031;-78
2021/10/05 00:16:50;;;;;;;11.95;2.50;;;14.80;92.80;;;;;;5076386;28;20024;-78
2021/10/05 00:19:16;;;;;;;14.38;2.42;;;14.90;92.80;;;;;;5076724;28;20021;-78
2021/10/05 00:21:42;;;;;;;21.23;3.13;;;14.90;93.00;;;;;;5077779;28;20039;-78
2021/10/05 00:24:10;;;;;;;17.13;2.53;;;14.90;93.20;;;;;;5077960;28;20024;-78
2021/10/05 00:26:36;;;;;;;11.88;2.00;;;15.00;93.10;;;;;;5077580;28;20432;-78
2021/10/05 00:29:02;;;;;;;19.70;2.90;;;15.00;93.30;;;;;;5077997;28;20035;-79
2021/10/05 00:31:27;;;;;;;12.27;2.95;;;15.10;93.50;;;;;;5077553;28;20025;-78
2021/10/05 00:33:53;;;;;;;11.15;2.78;;;15.10;93.50;;;;;;5096283;28;20051;-78
2021/10/05 00:36:19;;;;;;;10.00;2.03;;;15.10;93.40;;;;;;5096027;28;20024;-79
2021/10/05 00:38:46;;;;;;;10.88;2.13;;;15.10;93.30;;;;;;5077780;28;20494;-78
2021/10/05 00:41:11;;;;;;;13.35;2.45;;;15.10;93.70;;;;;;5077470;28;20021;-79
2021/10/05 00:43:37;;;;;;;9.60;1.88;;;15.20;93.70;;;;;;5077312;28;20558;-78
2021/10/05 00:46:03;;;;;;;9.02;1.70;;;15.20;93.90;;;;;;5077749;28;20109;-79
2021/10/05 00:48:29;;;;;;;9.95;2.47;;;15.20;94.20;;;;;;5084417;28;20023;-78
2021/10/05 00:50:55;;;;;;;14.73;2.65;;;15.20;94.40;;;;;;5083945;28;20024;-78
2021/10/05 00:53:20;;;;;;;13.00;1.88;;;15.20;94.10;;;;;;5077638;28;20017;-78
2021/10/05 00:55:47;;;;;;;10.07;1.60;;;15.20;93.80;;;;;;5079828;28;20020;-79
2021/10/05 00:58:12;;;;;;;8.65;1.88;;;15.20;93.80;;;;;;5077508;28;20372;-78
2021/10/05 01:00:38;;;;;;;8.90;1.90;;;15.20;93.90;;;;;;5077285;28;20085;-79
2021/10/05 01:03:05;;;;;;;9.35;1.75;;;15.20;93.90;;;;;;5077323;28;20099;-78
2021/10/05 01:05:31;;;;;;;17.17;3.17;;;15.20;94.10;;;;;;5090663;28;20508;-79
2021/10/05 01:07:57;;;;;;;8.93;1.92;;;15.20;94.00;;;;;;5063811;28;20035;-79
2021/10/05 01:10:24;;;;;;;10.38;2.13;;;15.20;94.30;;;;;;5090819;28;20027;-79
2021/10/05 01:12:52;;;;;;;8.85;2.00;;;15.20;94.20;;;;;;5077248;28;20035;-79
2021/10/05 01:15:19;;;;;;;14.10;2.22;;;15.20;94.00;;;;;;5076859;28;20499;-79
2021/10/05 01:17:45;;;;;;;11.52;2.85;;;15.30;94.00;;;;;;5080777;28;20397;-78
2021/10/05 01:20:11;;;;;;;7.15;1.90;;;15.20;93.90;;;;;;5081385;28;20099;-79
2021/10/05 01:22:37;;;;;;;9.20;1.48;;;15.20;93.90;;;;;;5081444;28;20025;-78
2021/10/05 01:25:05;;;;;;;8.80;1.83;;;15.30;94.20;;;;;;5081058;28;20388;-79
2021/10/05 01:27:31;;;;;;;11.32;2.05;;;15.30;93.90;;;;;;5081256;28;20020;-78
2021/10/05 01:29:57;;;;;;;7.80;1.98;;;15.30;93.70;;;;;;5081024;28;20028;-79
2021/10/05 01:32:23;;;;;;;7.75;1.85;;;15.30;93.50;;;;;;5087210;28;20051;-80
2021/10/05 01:34:49;;;;;;;7.47;1.60;;;15.30;93.70;;;;;;5101133;28;20124;-79
2021/10/05 01:37:14;;;;;;;6.50;1.20;;;15.30;94.20;;;;;;5091543;28;20025;-78
2021/10/05 01:39:40;;;;;;;8.30;1.50;;;15.40;94.60;;;;;;5080816;28;20024;-79
2021/10/05 01:42:10;;;;;;;7.00;1.65;;;15.30;94.30;;;;;;5080876;28;20479;-79
2021/10/05 01:44:36;;;;;;;4.55;1.30;;;15.30;94.10;;;;;;5080508;28;20024;-79
2021/10/05 01:47:05;;;;;;;4.65;1.10;;;15.30;94.70;;;;;;5080783;28;20025;-79
2021/10/05 01:49:31;;;;;;;6.57;1.13;;;15.30;94.20;;;;;;5094369;28;20020;-79
2021/10/05 01:51:57;;;;;;;6.95;1.08;;;15.20;94.10;;;;;;5080731;28;20107;-79
2021/10/05 01:54:22;;;;;;;7.82;1.30;;;15.20;94.30;;;;;;5080420;28;20026;-79
2021/10/05 01:56:49;;;;;;;7.63;1.40;;;15.30;94.10;;;;;;5083587;28;20094;-79
2021/10/05 01:59:15;;;;;;;4.47;1.10;;;15.30;94.30;;;;;;5080320;28;20020;-79
2021/10/05 02:01:41;;;;;;;4.70;1.13;;;15.20;94.40;;;;;;5080703;28;20111;-79
2021/10/05 02:04:08;;;;;;;7.78;1.23;;;15.20;94.50;;;;;;5082644;28;20063;-79
2021/10/05 02:06:34;;;;;;;7.28;1.50;;;15.20;94.20;;;;;;5089936;28;20058;-79
2021/10/05 02:09:00;;;;;;;3.95;1.08;;;15.20;94.30;;;;;;5080204;28;20107;-79
2021/10/05 02:11:26;;;;;;;4.35;0.77;;;15.20;94.30;;;;;;5080439;28;20048;-79
2021/10/05 02:13:52;;;;;;;4.25;0.80;;;15.20;94.70;;;;;;5080061;28;20096;-79
2021/10/05 02:16:18;;;;;;;3.70;1.15;;;15.20;95.00;;;;;;5080203;28;20060;-79
2021/10/05 02:18:46;;;;;;;3.55;0.80;;;15.20;95.00;;;;;;5080159;28;20021;-79
2021/10/05 02:21:14;;;;;;;3.78;0.70;;;15.20;95.10;;;;;;5080606;28;20027;-79
2021/10/05 02:26:35;;;;;;;4.07;1.10;;;15.20;96.00;;;;;;5061787;28;20123;-80
2021/10/05 02:29:01;;;;;;;4.95;0.80;;;15.20;96.40;;;;;;5091980;28;20059;-79
2021/10/05 02:31:28;;;;;;;4.82;1.00;;;15.20;96.50;;;;;;5079864;28;20028;-79
2021/10/05 02:33:54;;;;;;;3.10;0.70;;;15.20;96.10;;;;;;5098629;28;20048;-81
2021/10/05 02:36:20;;;;;;;2.38;0.60;;;15.10;95.90;;;;;;5097880;28;20551;-79
2021/10/05 02:38:45;;;;;;;4.13;0.77;;;15.10;96.20;;;;;;5079990;28;20070;-78
2021/10/05 02:41:11;;;;;;;2.00;0.70;;;15.20;96.00;;;;;;5079730;28;20031;-78
2021/10/05 02:43:37;;;;;;;3.40;0.65;;;15.10;96.00;;;;;;5078853;28;20094;-79
2021/10/05 02:46:03;;;;;;;2.17;0.80;;;15.20;96.20;;;;;;5079737;28;20387;-79
2021/10/05 02:48:29;;;;;;;2.50;0.73;;;15.20;96.40;;;;;;5098783;28;20020;-78
2021/10/05 02:50:55;;;;;;;2.42;0.70;;;15.20;96.50;;;;;;5086137;28;20131;-79
2021/10/05 02:53:21;;;;;;;0.63;0.38;;;15.20;97.00;;;;;;5078347;28;20013;-79
2021/10/05 02:55:47;;;;;;;2.53;0.60;;;15.20;96.90;;;;;;5082117;28;20030;-79
2021/10/05 02:58:14;;;;;;;2.67;0.60;;;15.20;96.90;;;;;;5079277;28;20444;-79
2021/10/05 03:00:41;;;;;;;1.73;0.50;;;15.20;97.10;;;;;;5079359;28;20051;-80
2021/10/05 03:03:07;;;;;;;2.50;0.77;;;15.20;97.10;;;;;;5078146;28;20024;-80
2021/10/05 03:05:33;;;;;;;2.70;1.00;;;15.20;97.30;;;;;;5093066;28;20498;-79
2021/10/05 03:07:58;;;;;;;0.75;0.32;;;15.20;97.70;;;;;;5079636;28;20025;-79
2021/10/05 03:10:24;;;;;;;1.20;0.40;;;15.20;97.50;;;;;;5077796;28;20052;-79
2021/10/05 03:12:50;;;;;;;1.67;0.40;;;15.30;98.00;;;;;;5079204;28;20032;-79
2021/10/05 03:15:17;;;;;;;1.17;0.40;;;15.30;98.30;;;;;;5078951;28;20028;-79
2021/10/05 03:17:43;;;;;;;0.55;0.40;;;15.30;98.10;;;;;;5079110;28;20432;-80
2021/10/05 03:20:10;;;;;;;1.27;0.40;;;15.30;98.10;;;;;;5077971;28;20025;-79
2021/10/05 03:22:37;;;;;;;1.08;0.40;;;15.30;98.40;;;;;;5079097;28;20383;-79
2021/10/05 03:25:04;;;;;;;0.50;0.30;;;15.30;97.80;;;;;;5078734;28;20024;-79
2021/10/05 03:27:31;;;;;;;1.55;0.50;;;15.30;97.70;;;;;;5077693;28;20047;-80
2021/10/05 03:29:58;;;;;;;1.05;0.47;;;15.40;98.50;;;;;;5078512;28;20052;-80
2021/10/05 03:32:24;;;;;;;1.63;0.40;;;15.40;98.90;;;;;;5085087;28;20024;-79
2021/10/05 03:34:49;;;;;;;1.80;0.52;;;15.40;98.80;;;;;;5098751;28;20063;-80
2021/10/05 03:37:15;;;;;;;1.13;0.40;;;15.40;98.80;;;;;;5088137;28;20024;-79
2021/10/05 03:39:41;;;;;;;0.35;0.30;;;15.40;98.50;;;;;;5077999;28;20043;-79
2021/10/05 03:42:07;;;;;;;0.40;0.30;;;15.40;98.60;;;;;;5078773;28;20017;-79
2021/10/05 03:44:33;;;;;;;0.30;0.30;;;15.40;98.70;;;;;;5078270;28;20501;-79
2021/10/05 03:46:59;;;;;;;1.10;0.47;;;15.50;99.80;;;;;;5078674;28;20051;-79
2021/10/05 03:49:26;;;;;;;1.65;0.47;;;15.50;99.90;;;;;;5091853;28;20193;-82
2021/10/05 03:51:51;;;;;;;1.85;0.50;;;15.40;97.40;;;;;;5078582;28;20093;-81
2021/10/05 03:54:17;;;;;;;2.92;0.70;;;15.20;95.70;;;;;;5078092;28;20025;-81
2021/10/05 03:56:43;;;;;;;1.40;0.50;;;15.00;94.50;;;;;;5079555;28;20483;-81
2021/10/05 03:59:15;;;;;;;2.40;0.68;;;14.80;94.10;;;;;;5078183;28;20099;-81
2021/10/05 04:01:44;;;;;;;3.80;0.70;;;14.70;94.00;;;;;;5078496;28;20541;-80
2021/10/05 04:04:10;;;;;;;4.75;0.70;;;14.50;94.00;;;;;;5081067;28;20050;-80
2021/10/05 04:06:37;;;;;;;4.97;0.60;;;14.40;93.80;;;;;;5088305;28;20037;-80
2021/10/05 04:09:05;;;;;;;2.25;0.73;;;14.30;93.70;;;;;;5077964;28;20443;-81
2021/10/05 04:11:35;;;;;;;2.05;0.60;;;14.30;93.50;;;;;;5078160;28;20082;-81
2021/10/05 04:14:01;;;;;;;4.45;0.90;;;14.30;93.80;;;;;;5077734;28;20040;-81
2021/10/05 04:16:27;;;;;;;5.00;0.73;;;14.20;94.10;;;;;;5077891;28;20025;-80
2021/10/05 04:18:53;;;;;;;5.95;1.08;;;14.20;94.10;;;;;;5077808;28;20062;-80
2021/10/05 04:21:19;;;;;;;4.85;0.93;;;14.10;93.50;;;;;;5078138;28;20436;-80
2021/10/05 04:23:45;;;;;;;6.85;1.17;;;14.10;92.90;;;;;;5077662;28;20036;-80
2021/10/05 04:26:11;;;;;;;5.15;0.80;;;14.00;92.50;;;;;;5077823;28;20035;-80
2021/10/05 04:28:37;;;;;;;5.45;0.85;;;14.00;92.30;;;;;;5076335;28;20044;-81
2021/10/05 04:31:04;;;;;;;3.78;0.88;;;13.90;92.20;;;;;;5076675;28;20020;-80
2021/10/05 04:33:30;;;;;;;4.40;0.80;;;13.90;91.90;;;;;;5092814;28;20044;-80
2021/10/05 04:35:56;;;;;;;2.55;0.73;;;13.80;92.50;;;;;;5097845;28;20082;-80
2021/10/05 04:38:22;;;;;;;4.00;1.00;;;13.80;92.10;;;;;;5078254;28;20491;-80
2021/10/05 04:40:48;;;;;;;4.00;0.80;;;13.70;91.90;;;;;;5077499;28;20036;-80
2021/10/05 04:43:13;;;;;;;6.53;0.95;;;13.70;91.90;;;;;;5077404;28;20020;-80
2021/10/05 04:45:39;;;;;;;5.95;0.98;;;13.70;92.00;;;;;;5077718;28;20023;-81
2021/10/05 04:48:08;;;;;;;5.05;0.85;;;13.60;92.10;;;;;;5081521;28;20035;-80
2021/10/05 04:50:35;;;;;;;2.72;0.70;;;13.50;92.00;;;;;;5086408;28;20028;-80
2021/10/05 04:53:01;;;;;;;6.63;1.15;;;13.50;91.80;;;;;;5077263;28;20026;-81
2021/10/05 04:55:27;;;;;;;3.60;0.90;;;13.40;91.80;;;;;;5077610;28;20073;-81
2021/10/05 04:57:53;;;;;;;4.10;1.25;;;13.40;91.80;;;;;;5079271;28;20024;-81
2021/10/05 05:00:19;;;;;;;7.63;1.00;;;13.40;92.20;;;;;;5077408;28;20091;-80
2021/10/05 05:02:45;;;;;;;5.38;1.30;;;13.30;92.10;;;;;;5077182;28;20020;-80
2021/10/05 05:05:11;;;;;;;9.30;1.50;;;13.20;91.90;;;;;;5088660;28;20024;-77
2021/10/05 05:07:37;;;;;;;6.32;1.33;;;13.20;92.20;;;;;;5077845;28;20035;-75
2021/10/05 05:10:05;;;;;;;8.20;1.65;;;13.10;92.20;;;;;;5077315;28;20021;-77
2021/10/05 05:12:31;;;;;;;12.70;2.65;;;13.10;92.30;;;;;;5077062;28;20025;-79
2021/10/05 05:14:59;;;;;;;5.57;1.15;;;13.00;92.10;;;;;;5077087;28;20388;-79
2021/10/05 05:17:24;;;;;;;6.93;1.10;;;12.90;92.30;;;;;;5076729;28;20024;-79
2021/10/05 05:19:50;;;;;;;8.98;1.23;;;12.90;92.20;;;;;;5077210;28;20050;-79
2021/10/05 05:22:16;;;;;;;10.85;1.23;;;12.80;92.40;;;;;;5076960;28;20024;-78
2021/10/05 05:24:42;;;;;;;4.28;1.13;;;12.80;92.40;;;;;;5077268;28;20027;-78
2021/10/05 05:27:07;;;;;;;7.45;1.55;;;12.70;92.30;;;;;;5077032;28;20031;-79
2021/10/05 05:29:33;;;;;;;6.47;1.40;;;12.60;92.30;;;;;;5077042;28;20055;-78
2021/10/05 05:31:59;;;;;;;6.22;1.25;;;12.60;92.40;;;;;;5079555;28;20025;-78
2021/10/05 05:34:26;;;;;;;9.75;1.48;;;12.50;92.20;;;;;;5097144;28;20457;-80
2021/10/05 05:36:52;;;;;;;9.43;1.60;;;12.50;92.40;;;;;;5091158;28;20020;-82
2021/10/05 05:39:18;;;;;;;6.38;1.42;;;12.40;92.40;;;;;;5077030;28;20028;-80
2021/10/05 05:41:46;;;;;;;10.35;1.92;;;12.40;92.70;;;;;;5075681;28;20016;-80
2021/10/05 05:44:14;;;;;;;6.95;1.63;;;12.30;92.40;;;;;;5076580;28;20028;-81
2021/10/05 05:46:41;;;;;;;8.68;1.40;;;12.30;92.50;;;;;;5076632;28;20096;-80
2021/10/05 05:49:06;;;;;;;9.07;2.03;;;12.20;92.40;;;;;;5088863;28;20032;-79
2021/10/05 05:51:33;;;;;;;12.48;1.52;;;12.20;92.60;;;;;;5078180;28;20028;-82
2021/10/05 05:53:59;;;;;;;9.18;1.20;;;12.20;92.50;;;;;;5076691;28;20028;-79
2021/10/05 05:56:25;;;;;;;11.35;2.05;;;12.10;92.50;;;;;;5079341;28;20104;-78
2021/10/05 05:58:55;;;;;;;11.60;1.70;;;12.00;92.50;;;;;;5075135;28;20029;-78
2021/10/05 06:01:21;;;;;;;6.63;1.52;;;12.00;92.90;;;;;;5076479;28;20012;-78
2021/10/05 06:03:49;;;;;;;5.68;1.42;;;12.00;93.00;;;;;;5079972;28;20032;-79
2021/10/05 06:06:16;;;;;;;8.23;1.95;;;12.00;92.90;;;;;;5086727;28;20099;-79
2021/10/05 06:08:42;;;;;;;6.35;1.70;;;11.90;93.00;;;;;;5086575;28;20045;-79
2021/10/05 06:11:08;;;;;;;7.60;1.48;;;11.90;93.10;;;;;;5080664;28;20365;-79
2021/10/05 06:13:35;;;;;;;6.93;1.40;;;11.90;93.10;;;;;;5080076;28;20025;-79
2021/10/05 06:16:01;;;;;;;10.02;1.75;;;11.80;93.30;;;;;;5080465;28;20016;-78
2021/10/05 06:18:27;;;;;;;7.88;1.55;;;11.80;93.10;;;;;;5080278;28;20032;-77
2021/10/05 06:20:53;;;;;;;8.73;1.60;;;11.80;93.10;;;;;;5080547;28;20021;-78
2021/10/05 06:23:19;;;;;;;9.57;1.90;;;11.70;93.10;;;;;;5079148;28;20521;-78
2021/10/05 06:25:44;;;;;;;7.30;1.52;;;11.70;93.40;;;;;;5080155;28;20027;-78
2021/10/05 06:28:10;;;;;;;8.32;1.50;;;11.70;93.50;;;;;;5079786;28;20056;-78
2021/10/05 06:30:37;;;;;;;10.00;1.90;;;11.70;93.60;;;;;;5079957;28;20422;-78
2021/10/05 06:33:03;;;;;;;9.77;1.58;;;11.70;93.80;;;;;;5094729;28;20501;-78
2021/10/05 06:35:30;;;;;;;9.82;2.08;;;11.70;93.80;;;;;;5100001;28;20060;-78
2021/10/05 06:37:58;;;;;;;9.70;1.50;;;11.70;93.80;;;;;;5085249;28;20081;-78
2021/10/05 06:40:28;;;;;;;8.88;1.60;;;11.70;93.50;;;;;;5079902;28;20058;-78
2021/10/05 06:42:54;;;;;;;13.27;2.33;;;11.60;93.30;;;;;;5079357;28;20028;-78
2021/10/05 06:45:20;;;;;;;11.40;1.48;;;11.70;93.70;;;;;;5079998;28;20021;-78
2021/10/05 06:47:46;;;;;;;9.20;1.85;;;11.70;94.20;;;;;;5080411;28;20027;-77
2021/10/05 06:50:14;;;;;;;10.57;1.60;;;11.70;94.50;;;;;;5092207;28;20029;-78
2021/10/05 06:52:41;;;;;;;6.82;1.63;;;11.70;93.90;;;;;;5079569;28;20034;-78
2021/10/05 06:55:08;;;;;;;11.10;2.33;;;11.60;93.50;;;;;;5078214;28;20059;-78
2021/10/05 06:57:34;;;;;;;13.18;2.55;;;11.60;93.60;;;;;;5081857;28;20072;-77
2021/10/05 06:59:59;;;;;;;10.13;2.53;;;11.70;94.20;;;;;;5079357;28;20451;-78
2021/10/05 07:02:25;;;;;;;13.70;1.98;;;11.70;94.40;;;;;;5079260;28;20853;-77
2021/10/05 07:04:51;;;;;;;7.70;2.22;;;11.70;94.60;;;;;;5088076;28;20028;-77
2021/10/05 07:07:17;;;;;;;11.15;2.20;;;11.80;94.70;;;;;;5083763;28;20024;-78
2021/10/05 07:09:43;;;;;;;13.75;2.13;;;11.80;94.30;;;;;;5079292;28;20024;-78
2021/10/05 07:12:09;;;;;;;12.55;2.10;;;11.80;94.30;;;;;;5079246;28;20024;-78
2021/10/05 07:14:35;;;;;;;13.90;2.42;;;11.80;94.40;;;;;;5078198;28;20032;-77
2021/10/05 07:17:02;;;;;;;11.25;2.50;;;11.80;94.50;;;;;;5079046;28;20055;-78
2021/10/05 07:19:28;;;;;;;14.27;2.45;;;11.90;94.90;;;;;;5079097;28;20467;-77
2021/10/05 07:21:54;;;;;;;13.15;2.13;;;11.90;94.80;;;;;;5078954;28;20024;-77
2021/10/05 07:24:20;;;;;;;10.18;2.35;;;11.90;95.10;;;;;;5079088;28;20070;-77
2021/10/05 07:26:46;;;;;;;8.50;1.50;;;12.00;95.30;;;;;;5078884;28;20502;-77
2021/10/05 07:29:14;;;;;;;12.10;2.10;;;12.00;95.20;;;;;;5078746;28;20048;-76
2021/10/05 07:31:39;;;;;;;10.98;1.92;;;12.00;95.10;;;;;;5078642;28;20029;-77
2021/10/05 07:34:05;;;;;;;11.13;1.92;;;12.10;95.30;;;;;;5097535;28;20406;-76
2021/10/05 07:36:31;;;;;;;15.38;2.58;;;12.00;94.90;;;;;;5095459;28;20025;-77
2021/10/05 07:38:57;;;;;;;11.25;2.65;;;12.10;95.20;;;;;;5078797;28;20086;-77
2021/10/05 07:41:22;;;;;;;8.85;1.95;;;12.20;95.00;;;;;;5078527;28;20023;-76
2021/10/05 07:43:48;;;;;;;10.48;2.10;;;12.20;94.90;;;;;;5078414;28;20024;-77
2021/10/05 07:46:16;;;;;;;11.45;2.08;;;12.30;95.10;;;;;;5078310;28;20029;-77
2021/10/05 07:48:43;;;;;;;14.52;2.30;;;12.20;95.10;;;;;;5087127;28;20036;-78
2021/10/05 07:51:09;;;;;;;12.02;1.75;;;12.30;95.20;;;;;;5083025;28;20021;-77
2021/10/05 07:53:35;;;;;;;12.98;2.38;;;12.40;95.10;;;;;;5078378;28;20028;-76
2021/10/05 07:56:02;;;;;;;15.43;2.10;;;12.40;95.00;;;;;;5081006;28;20031;-76
2021/10/05 07:58:28;;;;;;;12.93;1.88;;;12.40;94.90;;;;;;5078262;28;20391;-76
2021/10/05 08:00:53;;;;;;;13.93;2.80;;;12.40;94.80;;;;;;5078117;28;20100;-77
2021/10/05 08:03:19;;;;;;;12.20;2.55;;;12.50;94.60;;;;;;5078245;28;20059;-76
2021/10/05 08:05:45;;;;;;;7.82;2.03;;;12.50;94.30;;;;;;5091633;28;20015;-77
2021/10/05 08:08:11;;;;;;;6.63;1.40;;;12.50;94.50;;;;;;5078263;28;20023;-77
2021/10/05 08:10:42;;;;;;;11.30;1.95;;;12.60;94.40;;;;;;5077838;28;20025;-76
2021/10/05 08:13:08;;;;;;;11.80;2.00;;;12.60;94.40;;;;;;5077678;28;20044;-77
2021/10/05 08:15:36;;;;;;;16.50;3.03;;;12.70;94.20;;;;;;5078046;28;20024;-76
2021/10/05 08:18:02;;;;;;;13.52;2.22;;;12.70;93.80;;;;;;5077842;28;20024;-76
2021/10/05 08:20:28;;;;;;;10.52;2.08;;;12.80;93.50;;;;;;5077687;28;20031;-76
2021/10/05 08:22:55;;;;;;;8.80;1.95;;;12.80;93.40;;;;;;5077880;28;20028;-76
2021/10/05 08:25:21;;;;;;;8.90;1.80;;;12.90;93.40;;;;;;5077478;28;20047;-76
2021/10/05 08:27:47;;;;;;;9.90;1.70;;;13.00;92.90;;;;;;5077539;28;20601;-76
2021/10/05 08:30:14;;;;;;;11.23;2.53;;;13.00;92.90;;;;;;5077842;28;20039;-76
2021/10/05 08:32:41;;;;;;;11.18;2.17;;;13.10;92.70;;;;;;5086216;28;20056;-76
2021/10/05 08:35:07;;;;;;;11.48;2.20;;;13.30;92.50;;;;;;5097742;28;20044;-76
2021/10/05 08:37:33;;;;;;;10.82;1.52;;;13.60;92.40;;;;;;5086089;28;20041;-76
2021/10/05 08:39:59;;;;;;;8.43;1.85;;;14.20;92.90;;;;;;5076055;28;20495;-76
2021/10/05 08:42:25;;;;;;;8.48;1.92;;;15.20;92.40;;;;;;5077534;28;20078;-77
2021/10/05 08:44:52;;;;;;;10.70;2.53;;;16.10;86.00;;;;;;5077197;28;20017;-78
2021/10/05 08:47:18;;;;;;;7.97;1.40;;;16.50;81.20;;;;;;5077520;28;20028;-76
2021/10/05 08:49:45;;;;;;;7.35;1.63;;;16.50;78.70;;;;;;5091027;28;20029;-76
2021/10/05 08:52:12;;;;;;;13.23;1.80;;;16.50;76.60;;;;;;5077569;28;20107;-76
2021/10/05 08:54:39;;;;;;;13.02;1.73;;;16.70;76.70;;;;;;5077237;28;20020;-76
2021/10/05 08:57:06;;;;;;;10.90;2.33;;;16.80;77.70;;;;;;5080234;28;20055;-76
2021/10/05 08:59:31;;;;;;;10.80;2.30;;;17.20;76.50;;;;;;5075712;28;20088;-76
2021/10/05 09:01:57;;;;;;;6.65;1.40;;;17.70;77.20;;;;;;5075951;28;20495;-76
2021/10/05 09:04:23;;;;;;;8.63;2.10;;;18.20;78.40;;;;;;5081516;28;20390;-76
2021/10/05 09:06:51;;;;;;;7.57;1.25;;;19.10;73.40;;;;;;5086368;28;20104;-76
2021/10/05 09:09:19;;;;;;;7.25;1.50;;;19.90;70.30;;;;;;5077029;28;20430;-76
2021/10/05 09:11:52;;;;;;;9.93;1.60;;;20.50;66.90;;;;;;5077274;28;20029;-78
2021/10/05 09:14:19;;;;;;;7.47;1.35;;;20.70;64.10;;;;;;5075630;28;20033;-77
2021/10/05 09:16:45;;;;;;;10.82;2.15;;;20.70;64.20;;;;;;5075930;28;20064;-77
2021/10/05 09:19:14;;;;;;;11.10;1.80;;;20.60;62.10;;;;;;5077268;28;20020;-76
2021/10/05 09:21:50;;;;;;;8.02;1.95;;;20.60;66.10;;;;;;5077321;28;20021;-77
2021/10/05 09:24:32;;;;;;;8.82;1.88;;;21.00;64.80;;;;;;5085406;28;20089;-77
2021/10/05 09:27:02;;;;;;;8.15;2.35;;;21.30;62.50;;;;;;5080243;28;20044;-77
2021/10/05 09:29:36;;;;;;;9.30;1.45;;;21.50;62.30;;;;;;5076965;28;20036;-77
2021/10/05 09:32:09;;;;;;;12.60;2.42;;;21.70;58.20;;;;;;5080143;28;20032;-76
2021/10/05 09:34:55;;;;;;;6.93;1.58;;;21.80;59.90;;;;;;5097378;28;20498;-78
2021/10/05 09:37:33;;;;;;;9.60;1.95;;;21.70;58.30;;;;;;5087774;28;20103;-78
2021/10/05 09:40:13;;;;;;;10.10;1.55;;;21.60;61.90;;;;;;5083158;28;20043;-78
2021/10/05 09:42:44;;;;;;;8.40;1.92;;;21.50;61.10;;;;;;5081331;28;20021;-78
2021/10/05 09:45:21;;;;;;;12.13;2.57;;;21.50;60.80;;;;;;5088201;28;20474;-77
2021/10/05 09:47:50;;;;;;;9.70;2.38;;;21.50;57.90;;;;;;5086571;28;20263;-78
2021/10/05 09:50:17;;;;;;;10.57;1.63;;;21.20;59.00;;;;;;5093147;28;20399;-77
2021/10/05 09:52:47;;;;;;;10.25;1.80;;;21.00;58.40;;;;;;5080690;28;20024;-78
2021/10/05 09:55:16;;;;;;;11.30;1.80;;;21.00;59.60;;;;;;5080751;28;20024;-78
2021/10/05 09:57:41;;;;;;;14.45;2.55;;;20.90;59.90;;;;;;5081492;28;20021;-78
2021/10/05 10:00:09;;;;;;;10.85;2.10;;;21.20;62.00;;;;;;5080721;28;20032;-78
2021/10/05 10:02:37;;;;;;;8.18;1.75;;;21.50;57.70;;;;;;5080483;28;20221;-77
2021/10/05 10:05:06;;;;;;;9.95;2.50;;;21.50;58.60;;;;;;5090369;28;20045;-78
2021/10/05 10:07:36;;;;;;;10.30;1.80;;;21.40;58.90;;;;;;5082250;28;20025;-78
2021/10/05 10:10:03;;;;;;;10.25;1.80;;;21.40;56.10;;;;;;5079355;28;20036;-78
2021/10/05 10:12:31;;;;;;;8.95;1.50;;;21.30;55.30;;;;;;5080233;28;20486;-79
2021/10/05 10:14:57;;;;;;;8.98;1.85;;;21.30;55.10;;;;;;5080395;28;20082;-78
2021/10/05 10:17:26;;;;;;;11.90;1.67;;;21.30;55.70;;;;;;5080172;28;20020;-77
2021/10/05 10:19:54;;;;;;;7.07;1.55;;;21.30;57.70;;;;;;5080285;28;20491;-78
2021/10/05 10:22:20;;;;;;;9.68;2.17;;;21.30;58.80;;;;;;5080091;28;20048;-78
2021/10/05 10:24:57;;;;;;;10.27;1.30;;;21.50;59.70;;;;;;5080051;28;20031;-78
2021/10/05 10:27:23;;;;;;;11.15;1.63;;;21.50;55.90;;;;;;5087919;28;20110;-78
2021/10/05 10:29:51;;;;;;;9.98;1.60;;;21.70;57.80;;;;;;5085576;28;20067;-78
2021/10/05 10:32:19;;;;;;;9.23;1.65;;;21.80;57.20;;;;;;5085544;28;20032;-78
2021/10/05 10:34:47;;;;;;;7.93;1.65;;;21.90;56.00;;;;;;5100066;28;20044;-78
2021/10/05 10:37:19;;;;;;;10.95;1.60;;;22.30;58.20;;;;;;5091444;28;20111;-78
2021/10/05 10:39:47;;;;;;;7.07;1.65;;;22.60;58.30;;;;;;5078409;28;20491;-77
2021/10/05 10:42:26;;;;;;;9.73;2.15;;;22.40;54.70;;;;;;5078598;28;20028;-78
2021/10/05 10:44:51;;;;;;;8.57;2.13;;;22.30;56.90;;;;;;5079518;28;20476;-78
2021/10/05 10:47:21;;;;;;;9.45;1.77;;;22.20;56.80;;;;;;5079894;28;20123;-78
2021/10/05 10:49:58;;;;;;;7.97;1.48;;;21.90;56.00;;;;;;5078229;28;20092;-78
2021/10/05 10:52:37;;;;;;;12.48;1.33;;;21.70;56.40;;;;;;5080008;28;20418;-78
2021/10/05 10:55:06;;;;;;;8.35;1.13;;;21.80;56.00;;;;;;5087394;28;20028;-78
2021/10/05 10:57:43;;;;;;;6.63;1.50;;;21.70;54.50;;;;;;5083642;28;20020;-78
2021/10/05 11:00:18;;;;;;;6.22;1.42;;;21.80;56.90;;;;;;5079522;28;20032;-78
2021/10/05 11:02:55;;;;;;;8.13;1.38;;;22.10;57.00;;;;;;5079455;28;20472;-78
2021/10/05 11:05:22;;;;;;;4.55;1.33;;;22.20;55.90;;;;;;5092393;28;20025;-79
2021/10/05 11:07:56;;;;;;;7.82;1.65;;;22.40;55.40;;;;;;5079551;28;20032;-78
2021/10/05 11:10:31;;;;;;;7.03;1.30;;;22.10;53.70;;;;;;5077902;28;20024;-78
2021/10/05 11:13:00;;;;;;;6.60;1.20;;;21.70;55.20;;;;;;5077846;28;20032;-78
2021/10/05 11:15:40;;;;;;;4.95;1.10;;;21.30;55.80;;;;;;5079342;28;20032;-78
2021/10/05 11:18:22;;;;;;;12.02;1.48;;;21.00;57.00;;;;;;5079383;28;20115;-78
2021/10/05 11:20:48;;;;;;;7.40;1.63;;;20.80;56.40;;;;;;5086722;28;20020;-77
2021/10/05 11:23:19;;;;;;;6.40;1.27;;;20.90;57.20;;;;;;5085303;28;20023;-77
2021/10/05 11:25:53;;;;;;;6.43;1.07;;;21.10;56.20;;;;;;5079204;28;20062;-78
2021/10/05 11:28:29;;;;;;;8.82;1.25;;;21.40;57.50;;;;;;5078783;28;20498;-78
2021/10/05 11:30:55;;;;;;;6.10;1.20;;;21.90;58.40;;;;;;5079202;28;20396;-78
2021/10/05 11:33:23;;;;;;;8.63;1.30;;;22.30;58.10;;;;;;5092763;28;20024;-78
2021/10/05 11:35:49;;;;;;;8.10;1.80;;;22.70;56.20;;;;;;5099168;28;20024;-78
2021/10/05 11:38:15;;;;;;;4.30;0.85;;;23.20;57.00;;;;;;5080649;28;20082;-79
2021/10/05 11:40:57;;;;;;;5.57;1.17;;;23.20;49.50;;;;;;5078795;28;20020;-78
2021/10/05 11:43:33;;;;;;;5.47;1.23;;;23.10;49.10;;;;;;5077237;28;20036;-77
2021/10/05 11:45:59;;;;;;;6.50;1.42;;;23.10;51.30;;;;;;5078473;28;21068;-77
2021/10/05 11:48:25;;;;;;;4.53;1.25;;;23.00;51.80;;;;;;5084522;28;20467;-78
2021/10/05 11:51:01;;;;;;;9.43;1.52;;;22.80;50.30;;;;;;5086002;28;20059;-78
2021/10/05 11:53:34;;;;;;;12.18;2.00;;;22.60;51.40;;;;;;5086181;28;20028;-78
2021/10/05 11:56:05;;;;;;;8.52;1.40;;;22.60;53.30;;;;;;5084934;28;20024;-77
2021/10/05 11:58:53;;;;;;;4.40;1.17;;;22.70;53.50;;;;;;5066546;28;20086;-78
2021/10/05 12:01:25;;;;;;;5.97;1.60;;;22.60;52.50;;;;;;5082342;28;20026;-78
2021/10/05 12:03:57;;;;;;;;;;;22.40;51.10;;;;;;5085413;28;20046;-78
2021/10/05 12:06:26;;;;;;;5.80;0.98;;;22.50;53.20;;;;;;5091064;28;19904;-78
2021/10/05 12:08:52;;;;;;;4.88;0.88;;;22.30;48.60;;;;;;5078016;28;20052;-78
2021/10/05 12:11:18;;;;;;;4.75;1.10;;;22.10;50.30;;;;;;5078401;28;20035;-78
2021/10/05 12:13:45;;;;;;;4.57;1.00;;;21.80;50.90;;;;;;5077662;28;20017;-78
2021/10/05 12:16:17;;;;;;;6.22;0.95;;;21.80;53.00;;;;;;5078455;28;20031;-78
2021/10/05 12:18:43;;;;;;;7.05;1.25;;;21.50;50.10;;;;;;5078239;28;20028;-78
2021/10/05 12:21:12;;;;;;;4.82;0.90;;;21.30;49.90;;;;;;5078130;28;20146;-78
2021/10/05 12:23:53;;;;;;;3.15;0.70;;;20.80;51.50;;;;;;5077759;28;20021;-78
2021/10/05 12:26:20;;;;;;;7.15;1.48;;;20.60;52.70;;;;;;5078069;28;20039;-77
2021/10/05 12:29:03;;;;;;;3.58;0.75;;;20.40;54.20;;;;;;5077686;28;20029;-78
2021/10/05 12:31:29;;;;;;;5.57;1.17;;;20.10;53.30;;;;;;5077949;28;20096;-77
2021/10/05 12:33:58;;;;;;;7.43;1.08;;;20.20;55.90;;;;;;5096649;28;20067;-78
2021/10/05 12:36:25;;;;;;;5.18;1.10;;;20.30;55.70;;;;;;5096111;28;20099;-77
2021/10/05 12:38:51;;;;;;;7.90;1.25;;;20.70;57.10;;;;;;5076363;28;20016;-77
2021/10/05 12:41:19;;;;;;;5.45;0.80;;;20.90;57.20;;;;;;5077463;28;20044;-78
2021/10/05 12:43:46;;;;;;;4.05;0.88;;;21.10;56.90;;;;;;5077607;28;20077;-78
2021/10/05 12:46:15;;;;;;;5.93;0.93;;;21.10;53.50;;;;;;5077655;28;20028;-77
2021/10/05 12:48:44;;;;;;;7.25;1.10;;;21.00;55.20;;;;;;5086105;28;20026;-78